createdAt,value
2022-10-30T00:01:10.462Z,98615.06
2022-10-30T00:03:36.173Z,98618.00
2022-10-30T00:06:05.429Z,98618.44
2022-10-30T00:08:31.648Z,98612.25
2022-10-30T00:11:04.484Z,98613.91
2022-10-30T00:13:30.239Z,98609.13
2022-10-30T00:15:55.899Z,98609.13
2022-10-30T00:18:21.556Z,98600.50
2022-10-30T00:20:48.052Z,98596.97
2022-10-30T00:23:13.991Z,98606.53
2022-10-30T00:25:39.932Z,98607.22
2022-10-30T00:28:06.696Z,98604.16
2022-10-30T00:30:34.175Z,98601.13
2022-10-30T00:33:00.679Z,98598.66
2022-10-30T00:35:26.765Z,98599.94
2022-10-30T00:37:52.451Z,98597.50
2022-10-30T00:40:18.505Z,98603.09
2022-10-30T00:42:44.190Z,98594.44
2022-10-30T00:45:12.322Z,98594.44
2022-10-30T00:47:46.001Z,98599.44
2022-10-30T00:50:29.890Z,98596.19
2022-10-30T00:53:01.374Z,98596.41
2022-10-30T00:55:33.581Z,98595.38
2022-10-30T00:58:02.311Z,98596.41
2022-10-30T01:00:29.975Z,98596.19
2022-10-30T01:02:57.420Z,98590.00
2022-10-30T01:05:26.753Z,98595.13
2022-10-30T01:07:52.435Z,98593.28
2022-10-30T01:10:18.758Z,98594.91
2022-10-30T01:12:46.295Z,98592.22
2022-10-30T01:15:13.377Z,98595.13
2022-10-30T01:17:59.908Z,98592.47
2022-10-30T01:20:53.477Z,98588.72
2022-10-30T01:23:45.799Z,98586.03
2022-10-30T01:26:35.522Z,98587.31
2022-10-30T01:29:13.151Z,98583.00
2022-10-30T01:31:51.024Z,98579.69
2022-10-30T01:34:28.406Z,98583.81
2022-10-30T01:37:03.279Z,98583.00
2022-10-30T01:39:34.975Z,98580.91
2022-10-30T01:42:30.370Z,98579.63
2022-10-30T01:44:56.591Z,98578.81
2022-10-30T01:47:45.237Z,98568.69
2022-10-30T01:50:25.621Z,98573.00
2022-10-30T01:53:10.149Z,98579.41
2022-10-30T01:56:00.771Z,98567.63
2022-10-30T01:58:41.291Z,98562.97
2022-10-30T02:01:07.421Z,98567.50
2022-10-30T02:03:33.109Z,98567.50
2022-10-30T02:05:59.005Z,98570.41
2022-10-30T02:08:24.840Z,98569.59
2022-10-30T02:10:52.199Z,98567.50
2022-10-30T02:13:18.129Z,98565.88
2022-10-30T02:15:46.055Z,98564.81
2022-10-30T02:18:11.715Z,98562.97
2022-10-30T02:20:38.256Z,98565.63
2022-10-30T02:23:05.907Z,98567.28
2022-10-30T02:25:31.953Z,98565.41
2022-10-30T02:27:58.406Z,98565.41
2022-10-30T02:30:24.243Z,98561.31
2022-10-30T02:32:49.905Z,98562.59
2022-10-30T02:35:15.625Z,98561.16
2022-10-30T02:37:41.382Z,98563.25
2022-10-30T02:40:07.598Z,98558.72
2022-10-30T02:42:36.400Z,98562.44
2022-10-30T02:45:02.264Z,98558.94
2022-10-30T02:47:28.285Z,98562.44
2022-10-30T02:49:54.064Z,98558.94
2022-10-30T02:52:19.748Z,98551.94
2022-10-30T02:54:45.400Z,98548.69
2022-10-30T02:57:11.453Z,98552.41
2022-10-30T02:59:37.118Z,98554.94
2022-10-30T03:02:02.930Z,98550.88
2022-10-30T03:04:28.755Z,98549.69
2022-10-30T03:06:54.525Z,98554.47
2022-10-30T03:09:20.175Z,98551.97
2022-10-30T03:11:46.077Z,98560.25
2022-10-30T03:14:11.808Z,98559.44
2022-10-30T03:16:37.895Z,98562.34
2022-10-30T03:19:04.386Z,98558.03
2022-10-30T03:21:30.157Z,98560.94
2022-10-30T03:23:56.026Z,98553.13
2022-10-30T03:26:22.252Z,98561.38
2022-10-30T03:28:48.093Z,98555.66
2022-10-30T03:31:16.987Z,98548.31
2022-10-30T03:33:43.874Z,98554.94
2022-10-30T03:36:10.946Z,98552.72
2022-10-30T03:38:37.259Z,98546.13
2022-10-30T03:41:04.233Z,98547.59
2022-10-30T03:43:30.056Z,98542.91
2022-10-30T03:45:56.516Z,98550.81
2022-10-30T03:48:24.881Z,98546.72
2022-10-30T03:50:58.140Z,98549.41
2022-10-30T03:53:25.510Z,98553.50
2022-10-30T03:55:51.735Z,98549.03
2022-10-30T03:58:17.787Z,98548.41
2022-10-30T04:00:43.464Z,98543.28
2022-10-30T04:03:09.717Z,98543.50
2022-10-30T04:05:36.329Z,98540.84
2022-10-30T04:08:04.677Z,98538.38
2022-10-30T04:10:30.726Z,98542.31
2022-10-30T04:13:04.721Z,98540.91
2022-10-30T04:15:30.904Z,98533.56
2022-10-30T04:17:57.340Z,98539.34
2022-10-30T04:20:24.375Z,98544.34
2022-10-30T04:22:56.040Z,98544.75
2022-10-30T04:25:22.095Z,98543.34
2022-10-30T04:27:48.655Z,98541.13
2022-10-30T04:30:16.594Z,98536.66
2022-10-30T04:33:01.968Z,98534.28
2022-10-30T04:35:30.908Z,98532.00
2022-10-30T04:37:56.840Z,98536.75
2022-10-30T04:40:24.361Z,98539.66
2022-10-30T04:42:50.441Z,98545.63
2022-10-30T04:45:16.548Z,98541.91
2022-10-30T04:47:42.215Z,98542.94
2022-10-30T04:50:08.304Z,98538.84
2022-10-30T04:52:34.773Z,98538.69
2022-10-30T04:55:00.719Z,98541.00
2022-10-30T04:57:26.437Z,98550.06
2022-10-30T04:59:52.183Z,98551.09
2022-10-30T05:02:20.584Z,98549.91
2022-10-30T05:04:46.390Z,98553.03
2022-10-30T05:07:12.885Z,98549.13
2022-10-30T05:09:38.928Z,98556.75
2022-10-30T05:12:05.138Z,98560.69
2022-10-30T05:14:31.930Z,98569.38
2022-10-30T05:16:58.239Z,98574.34
2022-10-30T05:19:24.278Z,98570.25
2022-10-30T05:21:50.557Z,98567.38
2022-10-30T05:24:16.248Z,98572.34
2022-10-30T05:26:41.966Z,98574.66
2022-10-30T05:29:07.630Z,98573.44
2022-10-30T05:31:33.414Z,98575.94
2022-10-30T05:34:01.726Z,98576.38
2022-10-30T05:36:30.207Z,98574.31
2022-10-30T05:38:55.929Z,98573.09
2022-10-30T05:41:21.895Z,98567.34
2022-10-30T05:43:47.595Z,98561.84
2022-10-30T05:46:13.350Z,98563.31
2022-10-30T05:48:39.019Z,98561.88
2022-10-30T05:51:05.826Z,98560.06
2022-10-30T05:53:31.789Z,98563.97
2022-10-30T05:55:58.849Z,98564.78
2022-10-30T05:58:25.159Z,98557.81
2022-10-30T06:00:51.167Z,98554.53
2022-10-30T06:03:18.467Z,98559.44
2022-10-30T06:05:45.706Z,98560.88
2022-10-30T06:08:11.673Z,98565.59
2022-10-30T06:10:37.410Z,98569.69
2022-10-30T06:13:05.862Z,98570.28
2022-10-30T06:15:32.031Z,98566.38
2022-10-30T06:17:58.574Z,98571.72
2022-10-30T06:20:27.317Z,98572.91
2022-10-30T06:22:58.253Z,98579.88
2022-10-30T06:25:24.969Z,98578.44
2022-10-30T06:27:51.166Z,98577.81
2022-10-30T06:30:17.319Z,98575.72
2022-10-30T06:32:43.230Z,98580.22
2022-10-30T06:35:08.977Z,98589.66
2022-10-30T06:37:34.830Z,98586.53
2022-10-30T06:40:00.826Z,98582.41
2022-10-30T06:42:26.685Z,98585.25
2022-10-30T06:44:52.328Z,98580.06
2022-10-30T06:47:18.092Z,98583.50
2022-10-30T06:49:43.744Z,98582.63
2022-10-30T06:52:09.406Z,98578.28
2022-10-30T06:54:35.430Z,98576.81
2022-10-30T06:57:01.226Z,98580.69
2022-10-30T06:59:27.239Z,98579.44
2022-10-30T07:01:55.716Z,98587.59
2022-10-30T07:04:24.799Z,98583.47
2022-10-30T07:06:50.795Z,98590.84
2022-10-30T07:09:16.465Z,98594.28
2022-10-30T07:11:45.129Z,98589.06
2022-10-30T07:14:11.530Z,98588.19
2022-10-30T07:16:37.311Z,98597.22
2022-10-30T07:19:04.532Z,98601.47
2022-10-30T07:21:30.881Z,98599.53
2022-10-30T07:23:56.551Z,98598.66
2022-10-30T07:26:22.293Z,98610.09
2022-10-30T07:28:48.206Z,98610.06
2022-10-30T07:31:17.196Z,98611.03
2022-10-30T07:33:49.815Z,98608.13
2022-10-30T07:36:15.507Z,98610.81
2022-10-30T07:38:41.174Z,98612.88
2022-10-30T07:41:06.851Z,98618.84
2022-10-30T07:43:32.557Z,98612.00
2022-10-30T07:45:58.320Z,98615.88
2022-10-30T07:48:23.987Z,98608.22
2022-10-30T07:50:49.893Z,98617.66
2022-10-30T07:53:15.699Z,98612.06
2022-10-30T07:55:42.260Z,98615.94
2022-10-30T07:58:07.924Z,98609.94
2022-10-30T08:00:33.623Z,98607.16
2022-10-30T08:02:59.665Z,98614.75
2022-10-30T08:05:28.908Z,98611.16
2022-10-30T08:07:55.859Z,98614.78
2022-10-30T08:10:21.957Z,98612.28
2022-10-30T08:12:47.713Z,98612.41
2022-10-30T08:15:13.839Z,98613.34
2022-10-30T08:17:44.393Z,98617.22
2022-10-30T08:20:12.039Z,98611.97
2022-10-30T08:22:47.767Z,98604.91
2022-10-30T08:25:14.236Z,98607.94
2022-10-30T08:27:52.277Z,98606.44
2022-10-30T08:30:18.634Z,98602.59
2022-10-30T08:32:44.307Z,98608.72
2022-10-30T08:35:09.976Z,98604.88
2022-10-30T08:37:35.734Z,98606.97
2022-10-30T08:40:01.484Z,98606.91
2022-10-30T08:42:27.162Z,98613.91
2022-10-30T08:44:52.934Z,98606.47
2022-10-30T08:47:18.716Z,98613.47
2022-10-30T08:49:44.369Z,98606.34
2022-10-30T08:52:10.103Z,98603.53
2022-10-30T08:54:35.883Z,98598.94
2022-10-30T08:57:01.716Z,98607.91
2022-10-30T08:59:27.373Z,98600.66
2022-10-30T09:01:53.255Z,98605.16
2022-10-30T09:04:19.136Z,98598.34
2022-10-30T09:06:44.839Z,98599.38
2022-10-30T09:09:11.200Z,98589.59
2022-10-30T09:11:37.016Z,98591.41
2022-10-30T09:14:03.198Z,98594.84
2022-10-30T09:16:28.879Z,98589.31
2022-10-30T09:18:54.591Z,98588.09
2022-10-30T09:21:20.251Z,98582.59
2022-10-30T09:23:45.995Z,98588.28
2022-10-30T09:26:15.431Z,98591.47
2022-10-30T09:28:44.042Z,98594.53
2022-10-30T09:31:09.690Z,98591.75
2022-10-30T09:33:35.423Z,98586.75
2022-10-30T09:36:02.170Z,98592.81
2022-10-30T09:38:28.955Z,98589.22
2022-10-30T09:41:13.593Z,98592.53
2022-10-30T09:44:01.210Z,98585.66
2022-10-30T09:47:02.263Z,98588.19
2022-10-30T09:49:52.044Z,98590.22
2022-10-30T09:52:36.247Z,98586.03
2022-10-30T09:55:12.489Z,98595.59
2022-10-30T09:58:11.736Z,98588.41
2022-10-30T10:00:41.665Z,98580.97
2022-10-30T10:03:25.389Z,98587.03
2022-10-30T10:05:54.477Z,98591.13
2022-10-30T10:08:28.399Z,98594.19
2022-10-30T10:10:59.526Z,98577.75
2022-10-30T10:13:34.076Z,98585.16
2022-10-30T10:16:10.921Z,98581.41
2022-10-30T10:18:46.141Z,98582.03
2022-10-30T10:21:24.808Z,98580.44
2022-10-30T10:23:54.661Z,98577.00
2022-10-30T10:26:23.186Z,98573.00
2022-10-30T10:29:08.392Z,98570.34
2022-10-30T10:32:06.109Z,98558.47
2022-10-30T10:34:44.852Z,98562.31
2022-10-30T10:37:29.231Z,98561.03
2022-10-30T10:40:20.031Z,98568.91
2022-10-30T10:42:57.080Z,98566.25
2022-10-30T10:46:10.505Z,98563.31
2022-10-30T10:48:47.884Z,98558.19
2022-10-30T10:51:16.557Z,98552.25
2022-10-30T10:53:51.064Z,98550.09
2022-10-30T10:56:20.878Z,98553.09
2022-10-30T10:58:56.172Z,98544.97
2022-10-30T11:01:37.496Z,98553.09
2022-10-30T11:04:26.398Z,98552.28
2022-10-30T11:06:55.140Z,98535.25
2022-10-30T11:09:23.436Z,98537.97
2022-10-30T11:11:51.976Z,98540.41
2022-10-30T11:14:23.897Z,98530.63
2022-10-30T11:17:11.190Z,98523.28
2022-10-30T11:19:36.863Z,98531.16
2022-10-30T11:22:11.657Z,98526.81
2022-10-30T11:24:37.429Z,98534.66
2022-10-30T11:27:29.952Z,98538.72
2022-10-30T11:30:02.277Z,98536.78
2022-10-30T11:32:31.231Z,98525.63
2022-10-30T11:35:11.270Z,98530.25
2022-10-30T11:37:41.915Z,98526.16
2022-10-30T11:40:10.427Z,98524.78
2022-10-30T11:42:38.890Z,98519.34
2022-10-30T11:45:13.794Z,98533.75
2022-10-30T11:47:39.895Z,98524.47
2022-10-30T11:50:15.168Z,98529.56
2022-10-30T11:52:43.039Z,98529.00
2022-10-30T11:55:24.127Z,98519.84
2022-10-30T11:57:54.134Z,98530.41
2022-10-30T12:00:26.021Z,98523.84
2022-10-30T12:02:53.941Z,98521.06
2022-10-30T12:05:38.458Z,98524.56
2022-10-30T12:08:07.468Z,98526.16
2022-10-30T12:10:44.815Z,98515.28
2022-10-30T12:13:14.943Z,98515.47
2022-10-30T12:15:41.681Z,98512.72
2022-10-30T12:18:16.001Z,98509.13
2022-10-30T12:20:45.364Z,98513.41
2022-10-30T12:23:21.405Z,98514.19
2022-10-30T12:25:49.488Z,98511.97
2022-10-30T12:28:24.985Z,98505.94
2022-10-30T12:30:54.413Z,98511.06
2022-10-30T12:33:27.083Z,98504.22
2022-10-30T12:36:01.167Z,98505.56
2022-10-30T12:38:33.664Z,98499.03
2022-10-30T12:41:09.468Z,98504.47
2022-10-30T12:43:36.013Z,98498.47
2022-10-30T12:46:27.433Z,98497.91
2022-10-30T12:48:59.935Z,98502.59
2022-10-30T12:51:34.964Z,98495.84
2022-10-30T12:54:39.780Z,98494.78
2022-10-30T12:57:16.898Z,98495.09
2022-10-30T12:59:53.054Z,98493.69
2022-10-30T13:02:36.149Z,98492.88
2022-10-30T13:05:12.283Z,98486.41
2022-10-30T13:07:43.748Z,98482.63
2022-10-30T13:10:21.652Z,98487.50
2022-10-30T13:12:53.669Z,98477.97
2022-10-30T13:15:37.367Z,98485.88
2022-10-30T13:18:20.241Z,98483.47
2022-10-30T13:21:11.062Z,98481.56
2022-10-30T13:23:50.567Z,98470.97
2022-10-30T13:26:37.534Z,98476.41
2022-10-30T13:29:25.925Z,98469.34
2022-10-30T13:32:18.010Z,98463.91
2022-10-30T13:35:05.581Z,98471.53
2022-10-30T13:37:56.196Z,98466.69
2022-10-30T13:40:34.882Z,98467.25
2022-10-30T13:43:06.579Z,98464.25
2022-10-30T13:45:54.404Z,98468.06
2022-10-30T13:48:55.484Z,98461.00
2022-10-30T13:51:40.291Z,98461.00
2022-10-30T13:54:12.519Z,98464.53
2022-10-30T13:56:40.442Z,98462.09
2022-10-30T13:59:20.891Z,98466.44
2022-10-30T14:02:13.396Z,98464.81
2022-10-30T14:04:50.799Z,98461.31
2022-10-30T14:07:41.561Z,98460.78
2022-10-30T14:10:44.303Z,98473.28
2022-10-30T14:13:55.676Z,98467.34
2022-10-30T14:16:42.454Z,98476.63
2022-10-30T14:19:15.410Z,98472.34
2022-10-30T14:21:42.234Z,98470.75
2022-10-30T14:24:17.558Z,98465.34
2022-10-30T14:26:52.698Z,98469.72
2022-10-30T14:29:34.030Z,98472.22
2022-10-30T14:32:00.642Z,98471.47
2022-10-30T14:34:43.299Z,98469.03
2022-10-30T14:37:09.550Z,98458.50
2022-10-30T14:39:42.947Z,98468.56
2022-10-30T14:42:26.664Z,98466.94
2022-10-30T14:45:13.311Z,98469.13
2022-10-30T14:48:06.771Z,98462.13
2022-10-30T14:50:49.510Z,98468.94
2022-10-30T14:53:29.440Z,98469.78
2022-10-30T14:56:13.821Z,98472.53
2022-10-30T14:58:40.415Z,98479.59
2022-10-30T15:01:08.880Z,98467.97
2022-10-30T15:04:07.137Z,98472.34
2022-10-30T15:06:50.432Z,98474.25
2022-10-30T15:09:38.695Z,98479.97
2022-10-30T15:12:21.547Z,98471.25
2022-10-30T15:15:01.284Z,98464.78
2022-10-30T15:17:32.291Z,98467.78
2022-10-30T15:20:02.327Z,98476.41
2022-10-30T15:22:30.072Z,98469.13
2022-10-30T15:24:55.919Z,98477.53
2022-10-30T15:27:24.475Z,98477.50
2022-10-30T15:29:54.650Z,98474.78
2022-10-30T15:32:23.773Z,98476.91
2022-10-30T15:34:59.515Z,98473.63
2022-10-30T15:37:26.181Z,98476.00
2022-10-30T15:40:10.763Z,98470.53
2022-10-30T15:42:38.591Z,98483.75
2022-10-30T15:45:04.919Z,98483.41
2022-10-30T15:47:30.870Z,98481.19
2022-10-30T15:49:57.248Z,98478.94
2022-10-30T15:52:28.245Z,98480.72
2022-10-30T15:55:08.960Z,98486.56
2022-10-30T16:00:31.627Z,98485.00
2022-10-30T16:03:02.847Z,98481.94
2022-10-30T16:05:30.202Z,98489.97
2022-10-30T16:08:01.165Z,98488.47
2022-10-30T16:10:34.026Z,98490.25
2022-10-30T16:13:00.864Z,98489.91
2022-10-30T16:15:30.650Z,98492.22
2022-10-30T16:18:07.088Z,98501.03
2022-10-30T16:20:34.863Z,98496.09
2022-10-30T16:23:02.795Z,98494.88
2022-10-30T16:25:28.805Z,98502.63
2022-10-30T16:27:54.646Z,98497.63
2022-10-30T16:30:21.337Z,98503.72
2022-10-30T16:32:51.942Z,98497.97
2022-10-30T16:35:21.048Z,98504.25
2022-10-30T16:37:47.307Z,98506.91
2022-10-30T16:40:15.725Z,98503.28
2022-10-30T16:42:51.912Z,98506.38
2022-10-30T16:45:17.491Z,98507.88
2022-10-30T16:47:46.601Z,98511.56
2022-10-30T16:50:15.836Z,98511.13
2022-10-30T16:52:42.918Z,98509.69
2022-10-30T16:55:19.502Z,98509.03
2022-10-30T16:57:48.315Z,98510.03
2022-10-30T17:00:26.034Z,98513.66
2022-10-30T17:02:55.249Z,98517.34
2022-10-30T17:05:29.528Z,98520.75
2022-10-30T17:07:58.413Z,98525.00
2022-10-30T17:10:35.007Z,98531.31
2022-10-30T17:13:33.086Z,98529.84
2022-10-30T17:16:13.101Z,98527.88
2022-10-30T17:18:39.087Z,98530.50
2022-10-30T17:21:13.600Z,98536.81
2022-10-30T17:23:47.250Z,98540.91
2022-10-30T17:26:13.810Z,98537.56
2022-10-30T17:28:41.090Z,98537.69
2022-10-30T17:31:18.849Z,98538.06
2022-10-30T17:33:45.778Z,98546.84
2022-10-30T17:36:11.909Z,98534.94
2022-10-30T17:38:38.011Z,98539.38
2022-10-30T17:41:06.071Z,98539.03
2022-10-30T17:43:34.591Z,98551.56
2022-10-30T17:46:01.196Z,98541.28
2022-10-30T17:48:28.332Z,98537.19
2022-10-30T17:50:54.968Z,98544.91
2022-10-30T17:53:22.700Z,98545.41
2022-10-30T17:55:56.957Z,98545.25
2022-10-30T17:58:22.760Z,98550.06
2022-10-30T18:00:48.671Z,98550.28
2022-10-30T18:03:14.644Z,98550.75
2022-10-30T18:05:41.674Z,98553.91
2022-10-30T18:08:07.347Z,98554.16
2022-10-30T18:10:33.117Z,98553.00
2022-10-30T18:12:59.486Z,98556.59
2022-10-30T18:15:33.476Z,98560.81
2022-10-30T18:17:59.606Z,98561.03
2022-10-30T18:20:26.044Z,98562.56
2022-10-30T18:22:52.859Z,98568.41
2022-10-30T18:25:44.850Z,98567.47
2022-10-30T18:28:10.518Z,98569.16
2022-10-30T18:30:36.447Z,98563.69
2022-10-30T18:33:02.794Z,98564.13
2022-10-30T18:35:30.018Z,98561.09
2022-10-30T18:37:56.697Z,98573.94
2022-10-30T18:40:22.954Z,98567.41
2022-10-30T18:42:48.886Z,98559.81
2022-10-30T18:45:22.127Z,98565.63
2022-10-30T18:47:48.152Z,98569.00
2022-10-30T18:50:14.744Z,98559.56
2022-10-30T18:52:40.996Z,98561.66
2022-10-30T18:55:32.421Z,98558.97
2022-10-30T18:57:58.847Z,98566.19
2022-10-30T19:00:35.022Z,98554.66
2022-10-30T19:03:06.169Z,98568.06
2022-10-30T19:05:33.911Z,98562.94
2022-10-30T19:08:02.251Z,98559.19
2022-10-30T19:10:30.150Z,98561.28
2022-10-30T19:13:16.717Z,98569.22
2022-10-30T19:15:47.706Z,98570.72
2022-10-30T19:18:14.363Z,98568.72
2022-10-30T19:20:58.964Z,98577.44
2022-10-30T19:23:26.132Z,98573.00
2022-10-30T19:25:52.068Z,98569.38
2022-10-30T19:28:19.044Z,98571.06
2022-10-30T19:30:49.414Z,98571.75
2022-10-30T19:33:16.997Z,98570.59
2022-10-30T19:35:42.764Z,98570.81
2022-10-30T19:38:10.021Z,98568.59
2022-10-30T19:40:37.293Z,98566.81
2022-10-30T19:43:03.568Z,98568.88
2022-10-30T19:45:30.479Z,98572.81
2022-10-30T19:47:58.973Z,98577.59
2022-10-30T19:50:27.155Z,98578.28
2022-10-30T19:52:56.055Z,98580.81
2022-10-30T19:55:22.168Z,98580.47
2022-10-30T19:57:48.203Z,98583.34
2022-10-30T20:00:20.648Z,98581.31
2022-10-30T20:02:47.060Z,98581.19
2022-10-30T20:05:16.216Z,98588.63
2022-10-30T20:07:42.425Z,98590.09
2022-10-30T20:10:17.174Z,98577.97
2022-10-30T20:12:42.923Z,98576.19
2022-10-30T20:15:13.305Z,98583.84
2022-10-30T20:17:39.133Z,98581.81
2022-10-30T20:20:05.352Z,98586.56
2022-10-30T20:22:31.014Z,98595.88
2022-10-30T20:24:56.731Z,98590.97
2022-10-30T20:27:22.408Z,98593.06
2022-10-30T20:29:48.125Z,98593.13
2022-10-30T20:32:13.850Z,98597.47
2022-10-30T20:34:39.828Z,98601.84
2022-10-30T20:37:05.529Z,98601.84
2022-10-30T20:39:31.290Z,98598.81
2022-10-30T20:41:57.105Z,98598.81
2022-10-30T20:44:22.755Z,98608.47
2022-10-30T20:46:48.457Z,98606.03
2022-10-30T20:49:18.106Z,98604.59
2022-10-30T20:51:44.602Z,98608.53
2022-10-30T20:54:10.264Z,98604.44
2022-10-30T20:56:35.932Z,98607.34
2022-10-30T20:59:01.652Z,98606.94
2022-10-30T21:01:27.491Z,98604.94
2022-10-30T21:03:57.704Z,98610.72
2022-10-30T21:06:26.184Z,98614.28
2022-10-30T21:08:51.854Z,98619.84
2022-10-30T21:11:17.546Z,98614.72
2022-10-30T21:13:43.225Z,98621.53
2022-10-30T21:16:09.233Z,98612.06
2022-10-30T21:18:34.971Z,98620.09
2022-10-30T21:21:01.928Z,98618.66
2022-10-30T21:23:27.829Z,98624.44
2022-10-30T21:26:05.179Z,98623.25
2022-10-30T21:28:31.228Z,98619.38
2022-10-30T21:31:05.987Z,98623.31
2022-10-30T21:33:33.341Z,98616.31
2022-10-30T21:36:25.148Z,98614.28
2022-10-30T21:38:51.097Z,98618.19
2022-10-30T21:41:19.361Z,98616.78
2022-10-30T21:43:50.133Z,98615.13
2022-10-30T21:46:16.537Z,98610.81
2022-10-30T21:48:42.234Z,98610.44
2022-10-30T21:51:11.105Z,98609.84
2022-10-30T21:53:37.819Z,98604.28
2022-10-30T21:56:11.920Z,98610.44
2022-10-30T21:58:37.909Z,98606.94
2022-10-30T22:01:05.727Z,98599.75
2022-10-30T22:03:32.768Z,98603.44
2022-10-30T22:05:58.572Z,98606.13
2022-10-30T22:08:24.359Z,98606.34
2022-10-30T22:10:50.025Z,98604.53
2022-10-30T22:13:15.771Z,98606.00
2022-10-30T22:15:41.476Z,98610.09
2022-10-30T22:18:07.137Z,98606.63
2022-10-30T22:20:33.068Z,98602.09
2022-10-30T22:22:58.732Z,98609.06
2022-10-30T22:25:24.431Z,98607.44
2022-10-30T22:27:50.081Z,98605.81
2022-10-30T22:30:15.909Z,98602.72
2022-10-30T22:32:41.664Z,98605.22
2022-10-30T22:35:07.755Z,98602.16
2022-10-30T22:37:33.520Z,98606.88
2022-10-30T22:39:59.742Z,98607.53
2022-10-30T22:42:25.395Z,98599.31
2022-10-30T22:44:51.171Z,98606.72
2022-10-30T22:47:16.826Z,98610.44
2022-10-30T22:49:42.618Z,98604.47
2022-10-30T22:52:08.296Z,98608.59
2022-10-30T22:54:33.967Z,98600.41
2022-10-30T22:56:59.730Z,98613.56
2022-10-30T22:59:25.572Z,98604.94
2022-10-30T23:01:51.410Z,98600.63
2022-10-30T23:04:17.136Z,98602.28
2022-10-30T23:06:43.828Z,98598.38
2022-10-30T23:09:20.407Z,98600.66
2022-10-30T23:11:46.094Z,98606.63
2022-10-30T23:14:11.763Z,98606.03
2022-10-30T23:16:37.450Z,98619.38
2022-10-30T23:19:03.154Z,98605.44
2022-10-30T23:21:30.653Z,98613.66
2022-10-30T23:23:56.847Z,98612.41
2022-10-30T23:26:25.463Z,98613.03
2022-10-30T23:28:53.589Z,98608.13
2022-10-30T23:31:21.833Z,98603.00
2022-10-30T23:33:48.654Z,98607.72
2022-10-30T23:36:15.546Z,98604.44
2022-10-30T23:38:41.613Z,98608.13
2022-10-30T23:41:07.392Z,98603.84
2022-10-30T23:43:33.310Z,98617.38
2022-10-30T23:45:58.955Z,98616.56
2022-10-30T23:48:24.616Z,98619.44
2022-10-30T23:50:50.430Z,98622.13
2022-10-30T23:53:16.095Z,98618.84
2022-10-30T23:55:54.221Z,98619.66
2022-10-30T23:58:20.445Z,98615.75
